createdAt,value
2018-01-21T00:01:07.510Z,99696.87
2018-01-21T00:03:35.883Z,99697.30
2018-01-21T00:06:04.978Z,99701.20
2018-01-21T00:08:34.098Z,99695.13
2018-01-21T00:11:02.454Z,99707.67
2018-01-21T00:13:31.550Z,99698.59
2018-01-21T00:15:59.926Z,99697.27
2018-01-21T00:18:29.390Z,99700.31
2018-01-21T00:20:57.718Z,99699.93
2018-01-21T00:23:26.846Z,99699.95
2018-01-21T00:25:55.167Z,99694.32
2018-01-21T00:28:23.514Z,99695.20
2018-01-21T00:30:51.892Z,99694.74
2018-01-21T00:33:20.226Z,99697.78
2018-01-21T00:35:48.591Z,99695.23
2018-01-21T00:38:16.906Z,99698.63
2018-01-21T00:40:45.262Z,99709.91
2018-01-21T00:43:13.618Z,99725.45
2018-01-21T00:45:41.934Z,99717.20
2018-01-21T00:48:10.682Z,99707.66
2018-01-21T00:50:39.086Z,99708.94
2018-01-21T00:53:07.412Z,99713.73
2018-01-21T00:55:35.758Z,99714.55
2018-01-21T00:58:04.133Z,99717.52
2018-01-21T01:00:33.218Z,99721.80
2018-01-21T01:03:01.574Z,99724.34
2018-01-21T01:05:30.702Z,99728.25
2018-01-21T01:07:59.030Z,99734.28
2018-01-21T01:10:27.424Z,99739.02
2018-01-21T01:12:56.510Z,99736.83
2018-01-21T01:15:24.868Z,99740.29
2018-01-21T01:17:53.221Z,99740.73
2018-01-21T01:20:21.549Z,99739.88
2018-01-21T01:22:50.674Z,99742.54
2018-01-21T01:25:19.022Z,99740.37
2018-01-21T01:27:47.401Z,99747.30
2018-01-21T01:30:16.499Z,99746.88
2018-01-21T01:32:45.635Z,99747.70
2018-01-21T01:35:14.011Z,99746.83
2018-01-21T01:37:42.395Z,99753.34
2018-01-21T01:40:10.729Z,99749.42
2018-01-21T01:42:39.863Z,99745.99
2018-01-21T01:45:08.197Z,99755.51
2018-01-21T01:47:37.341Z,99765.94
2018-01-21T01:50:05.674Z,99767.20
2018-01-21T01:52:34.794Z,99764.18
2018-01-21T01:55:03.161Z,99765.92
2018-01-21T01:57:31.502Z,99773.73
2018-01-21T01:59:59.873Z,99773.73
2018-01-21T02:02:28.195Z,99771.59
2018-01-21T02:04:56.529Z,99772.91
2018-01-21T02:07:24.901Z,99772.47
2018-01-21T02:09:53.257Z,99777.71
2018-01-21T02:12:21.578Z,99781.16
2018-01-21T02:14:50.720Z,99779.87
2018-01-21T02:17:19.053Z,99784.66
2018-01-21T02:19:48.157Z,99781.61
2018-01-21T02:22:17.293Z,99788.55
2018-01-21T02:24:45.661Z,99793.33
2018-01-21T02:27:13.988Z,99796.35
2018-01-21T02:29:43.145Z,99790.70
2018-01-21T02:32:11.545Z,99795.91
2018-01-21T02:34:39.871Z,99803.25
2018-01-21T02:37:08.229Z,99804.15
2018-01-21T02:39:37.553Z,99806.34
2018-01-21T02:42:05.919Z,99805.88
2018-01-21T02:44:35.009Z,99812.83
2018-01-21T02:47:04.173Z,99818.87
2018-01-21T02:49:32.501Z,99817.16
2018-01-21T02:52:00.832Z,99818.91
2018-01-21T02:54:29.204Z,99823.23
2018-01-21T02:56:57.568Z,99829.72
2018-01-21T02:59:25.925Z,99829.70
2018-01-21T03:01:54.269Z,99828.00
2018-01-21T03:04:23.397Z,99839.29
2018-01-21T03:06:51.756Z,99846.23
2018-01-21T03:09:20.121Z,99850.58
2018-01-21T03:11:49.204Z,99848.87
2018-01-21T03:14:18.356Z,99845.83
2018-01-21T03:16:47.465Z,99850.99
2018-01-21T03:19:15.824Z,99852.27
2018-01-21T03:21:44.184Z,99858.33
2018-01-21T03:24:12.504Z,99863.95
2018-01-21T03:26:40.877Z,99867.84
2018-01-21T03:29:09.212Z,99866.54
2018-01-21T03:31:37.608Z,99873.91
2018-01-21T03:34:05.948Z,99870.44
2018-01-21T03:36:35.076Z,99872.60
2018-01-21T03:39:03.425Z,99877.78
2018-01-21T03:41:32.564Z,99881.27
2018-01-21T03:44:00.920Z,99880.41
2018-01-21T03:46:29.288Z,99883.88
2018-01-21T03:48:57.643Z,99878.70
2018-01-21T03:51:26.000Z,99888.70
2018-01-21T03:53:55.128Z,99884.38
2018-01-21T03:56:24.260Z,99886.98
2018-01-21T03:58:52.583Z,99892.22
2018-01-21T04:01:21.024Z,99896.97
2018-01-21T04:03:49.352Z,99905.66
2018-01-21T04:06:17.680Z,99903.91
2018-01-21T04:08:46.064Z,99908.25
2018-01-21T04:11:14.401Z,99908.66
2018-01-21T04:13:42.776Z,99915.17
2018-01-21T04:16:11.904Z,99918.28
2018-01-21T04:18:40.279Z,99920.90
2018-01-21T04:21:08.616Z,99921.30
2018-01-21T04:23:37.755Z,99929.94
2018-01-21T04:26:06.092Z,99925.17
2018-01-21T04:28:35.235Z,99929.48
2018-01-21T04:31:04.000Z,99934.69
2018-01-21T04:33:32.327Z,99934.70
2018-01-21T04:36:00.720Z,99939.47
2018-01-21T04:38:29.471Z,99940.26
2018-01-21T04:40:57.848Z,99944.13
2018-01-21T04:43:26.579Z,99946.23
2018-01-21T04:45:55.712Z,99957.05
2018-01-21T04:48:24.059Z,99957.48
2018-01-21T04:50:53.208Z,99956.61
2018-01-21T04:53:21.575Z,99972.19
2018-01-21T04:55:49.975Z,99977.81
2018-01-21T04:58:18.299Z,99984.72
2018-01-21T05:00:46.679Z,99982.59
2018-01-21T05:03:15.051Z,99986.92
2018-01-21T05:05:44.147Z,99995.16
2018-01-21T05:08:13.291Z,99993.00
2018-01-21T05:10:42.408Z,99995.17
2018-01-21T05:13:10.747Z,99994.77
2018-01-21T05:15:39.112Z,99998.69
2018-01-21T05:18:07.484Z,100004.34
2018-01-21T05:20:35.803Z,100009.53
2018-01-21T05:23:04.143Z,100014.77
2018-01-21T05:25:32.559Z,100010.44
2018-01-21T05:28:01.775Z,100016.94
2018-01-21T05:30:30.515Z,100021.69
2018-01-21T05:32:58.891Z,100029.93
2018-01-21T05:35:27.235Z,100035.08
2018-01-21T05:37:56.419Z,100036.86
2018-01-21T05:40:24.787Z,100041.25
2018-01-21T05:42:53.126Z,100041.25
2018-01-21T05:45:21.509Z,100052.70
2018-01-21T05:47:49.843Z,100053.22
2018-01-21T05:50:18.940Z,100061.82
2018-01-21T05:52:48.103Z,100064.41
2018-01-21T05:55:16.846Z,100073.48
2018-01-21T05:57:45.184Z,100082.66
2018-01-21T06:00:13.551Z,100081.34
2018-01-21T06:02:41.911Z,100088.76
2018-01-21T06:05:10.247Z,100097.85
2018-01-21T06:07:38.691Z,100102.25
2018-01-21T06:10:07.023Z,100102.77
2018-01-21T06:12:35.354Z,100114.38
2018-01-21T06:15:03.731Z,100117.07
2018-01-21T06:17:32.115Z,100116.17
2018-01-21T06:20:00.448Z,100125.34
2018-01-21T06:22:28.899Z,100127.48
2018-01-21T06:24:57.247Z,100134.83
2018-01-21T06:27:26.335Z,100137.83
2018-01-21T06:29:54.739Z,100142.59
2018-01-21T06:32:23.089Z,100146.16
2018-01-21T06:34:51.461Z,100148.43
2018-01-21T06:37:19.819Z,100142.69
2018-01-21T06:39:48.183Z,100163.45
2018-01-21T06:42:16.519Z,100161.83
2018-01-21T06:44:45.763Z,100168.94
2018-01-21T06:47:14.088Z,100174.99
2018-01-21T06:49:42.419Z,100183.91
2018-01-21T06:52:10.915Z,100184.85
2018-01-21T06:54:39.251Z,100193.92
2018-01-21T06:57:08.396Z,100192.27
2018-01-21T06:59:36.762Z,100201.55
2018-01-21T07:02:05.163Z,100183.73
2018-01-21T07:04:33.498Z,100213.41
2018-01-21T07:07:01.847Z,100218.24
2018-01-21T07:09:30.223Z,100226.22
2018-01-21T07:11:59.330Z,100229.51
2018-01-21T07:14:27.662Z,100242.05
2018-01-21T07:16:56.034Z,100240.05
2018-01-21T07:19:24.472Z,100246.13
2018-01-21T07:21:52.818Z,100250.54
2018-01-21T07:24:21.949Z,100261.59
2018-01-21T07:26:50.706Z,100259.30
2018-01-21T07:29:19.850Z,100266.64
2018-01-21T07:31:48.203Z,100263.69
2018-01-21T07:34:18.255Z,100273.83
2018-01-21T07:36:46.626Z,100276.32
2018-01-21T07:39:14.967Z,100279.94
2018-01-21T07:41:43.334Z,100282.31
2018-01-21T07:44:12.420Z,100279.62
2018-01-21T07:46:41.766Z,100286.11
2018-01-21T07:49:10.862Z,100281.56
2018-01-21T07:51:39.210Z,100296.42
2018-01-21T07:54:07.630Z,100299.52
2018-01-21T07:56:36.014Z,100306.64
2018-01-21T07:59:04.490Z,100306.52
2018-01-21T08:01:32.810Z,100312.72
2018-01-21T08:04:01.907Z,100317.42
2018-01-21T08:06:30.274Z,100327.12
2018-01-21T08:08:58.610Z,100333.11
2018-01-21T08:11:26.994Z,100344.73
2018-01-21T08:13:55.344Z,100338.63
2018-01-21T08:16:23.718Z,100350.02
2018-01-21T08:18:52.071Z,100358.56
2018-01-21T08:21:20.438Z,100364.42
2018-01-21T08:23:48.783Z,100368.99
2018-01-21T08:26:17.158Z,100377.81
2018-01-21T08:28:45.526Z,100384.02
2018-01-21T08:31:14.010Z,100389.17
2018-01-21T08:33:47.678Z,100394.02
2018-01-21T08:39:25.338Z,100397.97
2018-01-21T08:44:54.130Z,100412.42
2018-01-21T08:47:22.458Z,100421.52
2018-01-21T08:49:50.867Z,100420.58
2018-01-21T08:52:19.262Z,100430.62
2018-01-21T08:54:47.654Z,100430.52
2018-01-21T08:57:16.032Z,100431.57
2018-01-21T08:59:44.420Z,100442.47
2018-01-21T09:02:12.776Z,100442.98
2018-01-21T09:04:41.872Z,100450.98
2018-01-21T09:07:11.011Z,100456.35
2018-01-21T09:09:39.399Z,100464.77
2018-01-21T09:12:09.315Z,100476.36
2018-01-21T09:14:37.687Z,100478.73
2018-01-21T09:17:06.030Z,100484.37
2018-01-21T09:19:34.414Z,100494.93
2018-01-21T09:22:02.778Z,100500.87
2018-01-21T09:24:31.183Z,100508.64
2018-01-21T09:26:59.575Z,100511.17
2018-01-21T09:29:27.913Z,100512.95
2018-01-21T09:31:56.296Z,100514.16
2018-01-21T09:34:24.688Z,100514.61
2018-01-21T09:36:53.028Z,100517.93
2018-01-21T09:39:21.454Z,100519.79
2018-01-21T09:41:49.847Z,100523.07
2018-01-21T09:44:18.218Z,100532.71
2018-01-21T09:46:46.590Z,100534.64
2018-01-21T09:49:15.711Z,100480.59
2018-01-21T09:51:44.846Z,100540.00
2018-01-21T09:54:14.147Z,100547.47
2018-01-21T09:56:42.566Z,100557.86
2018-01-21T09:59:10.912Z,100532.77
2018-01-21T10:01:40.427Z,100558.46
2018-01-21T10:04:10.121Z,100562.84
2018-01-21T10:06:40.362Z,100563.55
2018-01-21T10:09:08.734Z,100571.69
2018-01-21T10:11:37.366Z,100572.48
2018-01-21T10:14:07.982Z,100573.34
2018-01-21T10:16:36.778Z,100577.51
2018-01-21T10:19:05.946Z,100584.27
2018-01-21T10:21:34.858Z,100591.95
2018-01-21T10:24:03.998Z,100592.12
2018-01-21T10:26:32.573Z,100595.95
2018-01-21T10:29:00.915Z,100606.63
2018-01-21T10:31:29.245Z,100605.92
2018-01-21T10:33:57.638Z,100619.27
2018-01-21T10:36:26.067Z,100619.14
2018-01-21T10:38:55.205Z,100621.95
2018-01-21T10:41:23.551Z,100627.13
2018-01-21T10:43:53.251Z,100629.68
2018-01-21T10:46:21.621Z,100629.90
2018-01-21T10:48:50.777Z,100621.22
2018-01-21T10:51:20.090Z,100629.56
2018-01-21T10:53:48.447Z,100630.17
2018-01-21T10:56:19.415Z,100636.95
2018-01-21T10:58:47.858Z,100638.14
2018-01-21T11:01:16.195Z,100642.34
2018-01-21T11:03:45.301Z,100641.45
2018-01-21T11:06:13.676Z,100642.42
2018-01-21T11:08:42.010Z,100648.16
2018-01-21T11:11:11.102Z,100650.05
2018-01-21T11:13:39.447Z,100643.66
2018-01-21T11:16:07.787Z,100642.27
2018-01-21T11:18:36.947Z,100656.45
2018-01-21T11:21:05.283Z,100654.27
2018-01-21T11:23:33.646Z,100655.72
2018-01-21T11:26:02.778Z,100658.39
2018-01-21T11:28:31.155Z,100658.78
2018-01-21T11:30:59.526Z,100671.02
2018-01-21T11:33:27.902Z,100674.31
2018-01-21T11:35:56.290Z,100678.99
2018-01-21T11:38:24.634Z,100685.76
2018-01-21T11:40:53.825Z,100691.31
2018-01-21T11:43:22.205Z,100692.45
2018-01-21T11:45:51.307Z,100699.23
2018-01-21T11:48:19.702Z,100702.17
2018-01-21T11:50:48.113Z,100706.34
2018-01-21T11:53:16.450Z,100711.97
2018-01-21T11:55:44.833Z,100714.58
2018-01-21T11:58:13.167Z,100719.28
2018-01-21T12:00:41.525Z,100728.87
2018-01-21T12:03:09.921Z,100730.02
2018-01-21T12:05:38.293Z,100727.96
2018-01-21T12:08:06.859Z,100736.52
2018-01-21T12:10:35.273Z,100737.45
2018-01-21T12:13:03.625Z,100708.24
2018-01-21T12:15:34.287Z,100752.06
2018-01-21T12:18:03.457Z,100750.53
2018-01-21T12:20:33.819Z,100753.91
2018-01-21T12:23:03.813Z,100756.02
2018-01-21T12:25:33.090Z,100753.89
2018-01-21T12:28:02.314Z,100761.63
2018-01-21T12:30:30.754Z,100763.40
2018-01-21T12:32:59.370Z,100762.56
2018-01-21T12:35:27.836Z,100762.22
2018-01-21T12:37:56.313Z,100768.26
2018-01-21T12:40:24.789Z,100775.69
2018-01-21T12:42:55.246Z,100772.34
2018-01-21T12:45:23.612Z,100769.59
2018-01-21T12:47:52.165Z,100779.95
2018-01-21T12:50:22.120Z,100779.39
2018-01-21T12:52:51.268Z,100782.98
2018-01-21T12:55:20.173Z,100784.52
2018-01-21T12:57:51.560Z,100790.71
2018-01-21T13:00:21.508Z,100793.72
2018-01-21T13:02:49.931Z,100799.52
2018-01-21T13:05:18.314Z,100809.97
2018-01-21T13:07:46.711Z,100808.75
2018-01-21T13:10:15.982Z,100815.28
2018-01-21T13:12:46.706Z,100821.13
2018-01-21T13:15:15.224Z,100829.53
2018-01-21T13:17:44.188Z,100836.91
2018-01-21T13:20:12.572Z,100839.08
2018-01-21T13:22:41.398Z,100845.37
2018-01-21T13:25:14.532Z,100836.95
2018-01-21T13:27:43.664Z,100844.89
2018-01-21T13:30:19.192Z,100839.23
2018-01-21T13:32:47.610Z,100843.64
2018-01-21T13:35:16.128Z,100859.03
2018-01-21T13:37:50.560Z,100876.05
2018-01-21T13:40:19.953Z,100874.70
2018-01-21T13:42:48.380Z,100874.88
2018-01-21T13:45:16.993Z,100877.86
2018-01-21T13:47:45.388Z,100875.81
2018-01-21T13:50:15.072Z,100884.94
2018-01-21T13:52:44.272Z,100894.17
2018-01-21T13:55:13.612Z,100900.01
2018-01-21T13:57:41.988Z,100902.44
2018-01-21T14:00:11.908Z,100908.10
2018-01-21T14:02:40.283Z,100911.37
2018-01-21T14:05:09.552Z,100913.64
2018-01-21T14:07:38.820Z,100917.62
2018-01-21T14:10:07.952Z,100918.52
2018-01-21T14:12:36.372Z,100923.75
2018-01-21T14:15:04.736Z,100929.52
2018-01-21T14:17:33.157Z,100933.47
2018-01-21T14:20:02.265Z,100941.69
2018-01-21T14:22:30.661Z,100944.95
2018-01-21T14:24:59.075Z,100940.11
2018-01-21T14:27:27.464Z,100944.29
2018-01-21T14:32:45.961Z,100957.67
2018-01-21T14:35:15.619Z,100964.67
2018-01-21T14:37:44.014Z,100974.73
2018-01-21T14:40:12.392Z,100973.83
2018-01-21T14:42:41.260Z,100972.41
2018-01-21T14:45:09.658Z,100979.78
2018-01-21T14:47:38.008Z,100988.89
2018-01-21T14:50:06.965Z,100985.73
2018-01-21T14:52:36.070Z,100998.80
2018-01-21T14:55:06.056Z,101006.98
2018-01-21T14:57:34.409Z,101013.93
2018-01-21T15:00:03.736Z,101013.81
2018-01-21T15:02:32.907Z,101025.48
2018-01-21T15:05:01.263Z,101021.64
2018-01-21T15:07:29.647Z,101024.23
2018-01-21T15:09:58.541Z,101029.45
2018-01-21T15:12:26.874Z,101034.25
2018-01-21T15:14:56.027Z,101033.45
2018-01-21T15:17:24.688Z,101036.03
2018-01-21T15:19:53.083Z,101042.17
2018-01-21T15:22:21.628Z,101037.59
2018-01-21T15:24:50.021Z,101035.22
2018-01-21T15:27:18.494Z,101041.23
2018-01-21T15:29:46.887Z,101042.55
2018-01-21T15:32:15.981Z,101047.74
2018-01-21T15:34:44.373Z,101050.37
2018-01-21T15:37:12.768Z,101043.77
2018-01-21T15:39:41.132Z,101046.34
2018-01-21T15:42:09.572Z,101048.83
2018-01-21T15:44:38.144Z,101055.55
2018-01-21T15:47:07.247Z,101054.70
2018-01-21T15:49:35.616Z,101059.31
2018-01-21T15:52:05.067Z,101064.92
2018-01-21T15:54:34.463Z,101064.48
2018-01-21T15:57:03.641Z,101070.64
2018-01-21T15:59:32.014Z,101082.01
2018-01-21T16:02:01.612Z,101084.85
2018-01-21T16:04:30.708Z,101086.12
2018-01-21T16:06:59.075Z,101097.06
2018-01-21T16:09:27.404Z,101092.64
2018-01-21T16:11:55.787Z,101094.41
2018-01-21T16:14:24.452Z,101093.41
2018-01-21T16:16:53.260Z,101093.35
2018-01-21T16:19:21.614Z,101099.84
2018-01-21T16:21:50.870Z,101102.83
2018-01-21T16:24:19.260Z,101103.77
2018-01-21T16:26:47.611Z,101108.50
2018-01-21T16:29:15.974Z,101108.59
2018-01-21T16:31:44.396Z,101113.11
2018-01-21T16:34:13.544Z,101116.18
2018-01-21T16:36:41.918Z,101123.17
2018-01-21T16:39:10.271Z,101127.95
2018-01-21T16:41:39.235Z,101131.91
2018-01-21T16:44:08.360Z,101132.73
2018-01-21T16:46:36.800Z,101141.34
2018-01-21T16:49:05.461Z,101141.41
2018-01-21T16:51:34.929Z,101148.38
2018-01-21T16:54:04.162Z,101151.57
2018-01-21T16:56:32.542Z,101151.23
2018-01-21T16:59:01.611Z,101159.91
2018-01-21T17:01:31.606Z,101157.25
2018-01-21T17:04:00.008Z,101156.68
2018-01-21T17:06:28.426Z,101152.31
2018-01-21T17:08:56.803Z,101155.02
2018-01-21T17:11:25.137Z,101151.03
2018-01-21T17:13:55.236Z,101154.23
2018-01-21T17:16:23.622Z,101153.87
2018-01-21T17:18:52.347Z,101164.79
2018-01-21T17:21:20.689Z,101166.00
2018-01-21T17:23:49.830Z,101162.95
2018-01-21T17:26:18.194Z,101167.74
2018-01-21T17:28:47.530Z,101169.41
2018-01-21T17:31:17.434Z,101168.59
2018-01-21T17:33:45.766Z,101170.31
2018-01-21T17:36:14.114Z,101169.43
2018-01-21T17:38:43.844Z,101171.20
2018-01-21T17:41:13.986Z,101171.64
2018-01-21T17:43:42.582Z,101174.33
2018-01-21T17:46:11.058Z,101172.19
2018-01-21T17:48:39.443Z,101169.98
2018-01-21T17:51:07.798Z,101176.14
2018-01-21T17:53:36.613Z,101173.55
2018-01-21T17:56:04.990Z,101172.92
2018-01-21T17:58:33.314Z,101175.20
2018-01-21T18:01:01.654Z,101177.05
2018-01-21T18:03:30.966Z,101172.66
2018-01-21T18:05:59.351Z,101180.91
2018-01-21T18:08:29.244Z,101182.63
2018-01-21T18:10:57.627Z,101189.69
2018-01-21T18:13:27.463Z,101188.13
2018-01-21T18:15:56.254Z,101185.12
2018-01-21T18:18:25.602Z,101187.44
2018-01-21T18:20:54.087Z,101186.16
2018-01-21T18:23:22.473Z,101184.05
2018-01-21T18:25:50.842Z,101172.13
2018-01-21T18:28:19.197Z,101169.88
2018-01-21T18:30:48.405Z,101176.69
2018-01-21T18:33:16.789Z,101171.90
2018-01-21T18:35:45.878Z,101173.69
2018-01-21T18:38:14.239Z,101172.19
2018-01-21T18:40:43.134Z,101174.78
2018-01-21T18:43:11.546Z,101186.02
2018-01-21T18:45:42.142Z,101193.73
2018-01-21T18:48:10.518Z,101189.63
2018-01-21T18:50:38.849Z,101186.45
2018-01-21T18:53:07.185Z,101193.26
2018-01-21T18:55:35.651Z,101184.32
2018-01-21T18:58:04.733Z,101184.83
2018-01-21T19:00:33.619Z,101194.80
2018-01-21T19:03:03.565Z,101195.89
2018-01-21T19:05:32.041Z,101189.13
2018-01-21T19:08:00.382Z,101194.05
2018-01-21T19:10:30.238Z,101192.58
2018-01-21T19:12:58.621Z,101193.11
2018-01-21T19:15:27.007Z,101201.88
2018-01-21T19:17:55.405Z,101202.09
2018-01-21T19:20:23.745Z,101214.81
2018-01-21T19:22:52.165Z,101222.04
2018-01-21T19:25:20.510Z,101222.29
2018-01-21T19:27:50.641Z,101215.63
2018-01-21T19:30:19.510Z,101222.46
2018-01-21T19:32:48.671Z,101227.30
2018-01-21T19:35:18.362Z,101227.43
2018-01-21T19:37:46.953Z,101226.65
2018-01-21T19:43:36.601Z,101230.61
2018-01-21T19:46:05.716Z,101226.81
2018-01-21T19:48:34.108Z,101226.30
2018-01-21T19:51:03.434Z,101227.55
2018-01-21T19:53:32.578Z,101222.29
2018-01-21T19:56:01.178Z,101225.22
2018-01-21T19:58:29.633Z,101225.83
2018-01-21T20:00:57.989Z,101235.42
2018-01-21T20:03:27.101Z,101241.36
2018-01-21T20:05:55.501Z,101237.82
2018-01-21T20:08:23.867Z,101245.14
2018-01-21T20:10:53.009Z,101242.16
2018-01-21T20:13:22.115Z,101245.73
2018-01-21T20:15:50.493Z,101249.15
2018-01-21T20:18:19.652Z,101247.42
2018-01-21T20:20:48.042Z,101245.55
2018-01-21T20:23:16.429Z,101240.85
2018-01-21T20:25:46.410Z,101240.37
2018-01-21T20:28:15.585Z,101242.60
2018-01-21T20:30:43.951Z,101246.98
2018-01-21T20:33:12.317Z,101241.50
2018-01-21T20:35:41.467Z,101241.24
2018-01-21T20:38:09.796Z,101232.41
2018-01-21T20:40:38.161Z,101239.33
2018-01-21T20:43:06.526Z,101237.98
2018-01-21T20:45:34.911Z,101249.12
2018-01-21T20:48:04.416Z,101241.38
2018-01-21T20:50:33.029Z,101238.69
2018-01-21T20:53:08.641Z,101244.01
2018-01-21T20:55:37.040Z,101234.55
2018-01-21T20:58:05.585Z,101234.59
2018-01-21T21:00:33.968Z,101229.47
2018-01-21T21:03:02.308Z,101224.38
2018-01-21T21:05:31.382Z,101227.91
2018-01-21T21:07:59.992Z,101229.27
2018-01-21T21:10:28.414Z,101234.63
2018-01-21T21:12:57.277Z,101236.11
2018-01-21T21:15:25.640Z,101234.83
2018-01-21T21:17:54.024Z,101233.29
2018-01-21T21:20:23.291Z,101228.48
2018-01-21T21:22:52.510Z,101228.05
2018-01-21T21:25:21.240Z,101240.59
2018-01-21T21:27:49.765Z,101232.98
2018-01-21T21:30:18.108Z,101239.09
2018-01-21T21:32:46.468Z,101241.81
2018-01-21T21:35:15.636Z,101234.73
2018-01-21T21:37:44.640Z,101233.28
2018-01-21T21:40:13.032Z,101239.28
2018-01-21T21:42:41.412Z,101236.98
2018-01-21T21:45:09.772Z,101236.72
2018-01-21T21:47:38.102Z,101225.66
2018-01-21T21:50:08.245Z,101200.66
2018-01-21T21:52:37.609Z,101216.14
2018-01-21T21:55:06.740Z,101212.95
2018-01-21T21:57:35.108Z,101208.30
2018-01-21T22:00:04.120Z,101206.67
2018-01-21T22:02:32.493Z,101205.09
2018-01-21T22:05:01.762Z,101211.66
2018-01-21T22:07:30.916Z,101212.05
2018-01-21T22:09:59.257Z,101211.21
2018-01-21T22:12:27.648Z,101207.11
2018-01-21T22:14:56.000Z,101201.83
2018-01-21T22:17:24.375Z,101204.22
2018-01-21T22:19:53.496Z,101208.45
2018-01-21T22:22:22.296Z,101199.69
2018-01-21T22:24:50.636Z,101203.63
2018-01-21T22:27:19.948Z,101203.59
2018-01-21T22:29:48.320Z,101204.38
2018-01-21T22:32:16.700Z,101205.20
2018-01-21T22:34:45.039Z,101208.66
2018-01-21T22:37:13.491Z,101214.14
2018-01-21T22:39:41.819Z,101210.53
2018-01-21T22:42:11.068Z,101210.45
2018-01-21T22:44:39.403Z,101208.78
2018-01-21T22:47:08.510Z,101215.45
2018-01-21T22:49:36.899Z,101210.44
2018-01-21T22:52:05.241Z,101210.94
2018-01-21T22:54:34.383Z,101209.98
2018-01-21T22:57:02.815Z,101213.44
2018-01-21T22:59:31.923Z,101206.23
2018-01-21T23:02:01.052Z,101204.38
2018-01-21T23:04:29.785Z,101195.27
2018-01-21T23:06:58.918Z,101193.02
2018-01-21T23:09:27.256Z,101188.73
2018-01-21T23:11:56.031Z,101184.55
2018-01-21T23:14:24.371Z,101179.53
2018-01-21T23:16:52.845Z,101179.98
2018-01-21T23:19:21.187Z,101180.88
2018-01-21T23:21:50.296Z,101185.89
2018-01-21T23:24:19.459Z,101193.31
2018-01-21T23:26:47.791Z,101180.67
2018-01-21T23:29:16.163Z,101170.30
2018-01-21T23:31:45.330Z,101169.92
2018-01-21T23:34:14.687Z,101166.41
2018-01-21T23:36:43.483Z,101155.84
2018-01-21T23:39:12.238Z,101154.45
2018-01-21T23:41:41.335Z,101159.25
2018-01-21T23:44:10.503Z,101158.27
2018-01-21T23:46:39.738Z,101157.80
2018-01-21T23:49:08.879Z,101160.74
2018-01-21T23:51:37.627Z,101148.63
2018-01-21T23:54:05.991Z,101141.77
2018-01-21T23:56:34.586Z,101153.30
2018-01-21T23:59:02.950Z,101143.23
